createdAt,value
2024-03-05T00:00:05.043Z,8.01
2024-03-05T00:01:05.145Z,8.00
2024-03-05T00:02:05.157Z,7.89
2024-03-05T00:03:05.035Z,7.92
2024-03-05T00:04:05.014Z,7.92
2024-03-05T00:05:05.050Z,7.83
2024-03-05T00:06:04.976Z,7.80
2024-03-05T00:07:05.014Z,7.72
2024-03-05T00:08:04.988Z,7.77
2024-03-05T00:09:04.988Z,7.77
2024-03-05T00:10:04.933Z,7.74
2024-03-05T00:11:04.987Z,7.69
2024-03-05T00:12:04.920Z,7.68
2024-03-05T00:13:04.900Z,7.63
2024-03-05T00:14:04.889Z,7.71
2024-03-05T00:15:04.904Z,7.69
2024-03-05T00:16:04.861Z,7.69
2024-03-05T00:17:04.869Z,7.75
2024-03-05T00:18:04.931Z,7.74
2024-03-05T00:19:04.844Z,7.80
2024-03-05T00:20:04.856Z,7.83
2024-03-05T00:21:04.860Z,7.86
2024-03-05T00:22:04.819Z,7.82
2024-03-05T00:23:04.847Z,7.85
2024-03-05T00:24:04.836Z,7.87
2024-03-05T00:25:04.821Z,7.97
2024-03-05T00:26:04.761Z,7.90
2024-03-05T00:27:04.752Z,7.90
2024-03-05T00:28:04.781Z,7.87
2024-03-05T00:29:04.734Z,7.87
2024-03-05T00:30:04.720Z,7.87
2024-03-05T00:31:04.709Z,7.92
2024-03-05T00:32:04.722Z,7.79
2024-03-05T00:33:04.752Z,7.83
2024-03-05T00:34:04.694Z,7.80
2024-03-05T00:35:04.663Z,7.89
2024-03-05T00:36:04.676Z,7.72
2024-03-05T00:37:04.667Z,7.82
2024-03-05T00:38:09.130Z,7.72
2024-03-05T00:39:05.631Z,7.64
2024-03-05T00:40:04.644Z,7.71
2024-03-05T00:41:04.620Z,7.69
2024-03-05T00:42:04.604Z,7.71
2024-03-05T00:43:04.581Z,7.68
2024-03-05T00:44:04.578Z,7.67
2024-03-05T00:45:04.563Z,7.60
2024-03-05T00:46:04.617Z,7.68
2024-03-05T00:47:04.607Z,7.71
2024-03-05T00:48:04.593Z,7.71
2024-03-05T00:49:04.543Z,7.79
2024-03-05T00:50:04.518Z,7.74
2024-03-05T00:51:04.498Z,7.79
2024-03-05T00:52:04.531Z,7.79
2024-03-05T00:53:04.484Z,7.83
2024-03-05T00:54:04.461Z,7.82
2024-03-05T00:55:04.459Z,7.87
2024-03-05T00:56:04.485Z,7.86
2024-03-05T00:57:04.438Z,7.85
2024-03-05T00:58:04.470Z,7.85
2024-03-05T00:59:04.424Z,7.90
2024-03-05T01:00:04.412Z,7.85
2024-03-05T01:01:04.460Z,7.83
2024-03-05T01:02:04.462Z,7.83
2024-03-05T01:03:04.365Z,7.90
2024-03-05T01:04:04.369Z,7.90
2024-03-05T01:05:04.389Z,7.93
2024-03-05T01:06:04.350Z,7.89
2024-03-05T01:07:04.320Z,7.86
2024-03-05T01:08:04.345Z,7.95
2024-03-05T01:09:04.314Z,7.98
2024-03-05T01:10:04.349Z,7.95
2024-03-05T01:11:04.315Z,8.00
2024-03-05T01:12:04.314Z,8.01
2024-03-05T01:13:04.263Z,8.00
2024-03-05T01:14:04.304Z,8.00
2024-03-05T01:15:04.247Z,8.00
2024-03-05T01:16:04.277Z,8.01
2024-03-05T01:17:04.249Z,7.87
2024-03-05T01:18:04.246Z,7.92
2024-03-05T01:19:04.194Z,8.04
2024-03-05T01:20:04.185Z,7.92
2024-03-05T01:21:04.186Z,8.04
2024-03-05T01:22:04.219Z,8.02
2024-03-05T01:23:04.205Z,8.01
2024-03-05T01:24:04.188Z,8.10
2024-03-05T01:25:04.142Z,8.08
2024-03-05T01:26:04.414Z,8.04
2024-03-05T01:27:04.152Z,8.12
2024-03-05T01:28:04.137Z,8.07
2024-03-05T01:29:04.088Z,8.05
2024-03-05T01:30:05.833Z,8.02
2024-03-05T01:31:04.068Z,7.97
2024-03-05T01:32:04.132Z,8.04
2024-03-05T01:33:04.114Z,8.01
2024-03-05T01:34:04.035Z,8.02
2024-03-05T01:35:04.095Z,8.15
2024-03-05T01:36:04.014Z,8.02
2024-03-05T01:37:04.013Z,8.19
2024-03-05T01:38:04.036Z,8.12
2024-03-05T01:39:03.999Z,8.18
2024-03-05T01:40:03.991Z,8.12
2024-03-05T01:41:03.959Z,8.15
2024-03-05T01:42:03.947Z,8.02
2024-03-05T01:43:03.969Z,8.00
2024-03-05T01:44:03.973Z,8.04
2024-03-05T01:45:03.929Z,8.04
2024-03-05T01:46:03.936Z,8.16
2024-03-05T01:47:03.928Z,8.15
2024-03-05T01:48:03.967Z,8.05
2024-03-05T01:49:03.879Z,8.08
2024-03-05T01:50:03.955Z,8.10
2024-03-05T01:51:03.870Z,8.18
2024-03-05T01:52:03.873Z,8.11
2024-03-05T01:53:03.854Z,8.15
2024-03-05T01:54:03.813Z,8.16
2024-03-05T01:55:03.828Z,8.12
2024-03-05T01:56:03.889Z,8.15
2024-03-05T01:57:03.792Z,8.05
2024-03-05T01:58:03.792Z,8.07
2024-03-05T01:59:03.791Z,8.12
2024-03-05T02:00:03.780Z,8.18
2024-03-05T02:01:03.768Z,8.10
2024-03-05T02:02:03.786Z,8.15
2024-03-05T02:03:03.736Z,8.22
2024-03-05T02:04:03.721Z,8.18
2024-03-05T02:05:03.740Z,8.08
2024-03-05T02:06:03.701Z,8.10
2024-03-05T02:07:03.744Z,8.05
2024-03-05T02:08:03.731Z,8.08
2024-03-05T02:09:03.688Z,8.23
2024-03-05T02:10:03.686Z,8.23
2024-03-05T02:11:03.691Z,8.18
2024-03-05T02:12:04.404Z,8.25
2024-03-05T02:13:03.613Z,8.25
2024-03-05T02:14:03.626Z,8.22
2024-03-05T02:15:03.594Z,8.25
2024-03-05T02:16:03.601Z,8.26
2024-03-05T02:17:03.593Z,8.12
2024-03-05T02:18:03.631Z,8.18
2024-03-05T02:19:03.550Z,8.30
2024-03-05T02:20:03.634Z,8.29
2024-03-05T02:21:03.528Z,8.29
2024-03-05T02:22:03.555Z,8.26
2024-03-05T02:23:03.670Z,8.22
2024-03-05T02:24:03.513Z,8.30
2024-03-05T02:25:03.495Z,8.28
2024-03-05T02:26:03.583Z,8.34
2024-03-05T02:27:03.627Z,8.30
2024-03-05T02:28:03.500Z,8.29
2024-03-05T02:29:03.451Z,8.23
2024-03-05T02:30:03.424Z,8.26
2024-03-05T02:31:03.436Z,8.22
2024-03-05T02:32:03.462Z,8.25
2024-03-05T02:33:03.477Z,8.25
2024-03-05T02:34:03.428Z,8.28
2024-03-05T02:35:03.385Z,8.10
2024-03-05T02:36:03.381Z,8.12
2024-03-05T02:37:03.356Z,8.10
2024-03-05T02:38:03.364Z,8.22
2024-03-05T02:39:03.355Z,8.29
2024-03-05T02:40:03.369Z,8.18
2024-03-05T02:41:03.363Z,8.29
2024-03-05T02:42:03.311Z,8.15
2024-03-05T02:43:03.335Z,8.26
2024-03-05T02:44:03.316Z,8.23
2024-03-05T02:45:03.271Z,8.20
2024-03-05T02:46:03.320Z,8.20
2024-03-05T02:47:03.288Z,8.28
2024-03-05T02:48:03.305Z,8.28
2024-03-05T02:49:03.244Z,8.30
2024-03-05T02:50:03.309Z,8.26
2024-03-05T02:51:03.206Z,8.23
2024-03-05T02:52:03.216Z,8.25
2024-03-05T02:53:03.254Z,8.33
2024-03-05T02:54:03.208Z,8.29
2024-03-05T02:55:03.182Z,8.26
2024-03-05T02:56:03.184Z,8.25
2024-03-05T02:57:03.142Z,8.28
2024-03-05T02:58:03.162Z,8.22
2024-03-05T02:59:03.144Z,8.18
2024-03-05T03:00:03.134Z,8.19
2024-03-05T03:01:03.139Z,8.15
2024-03-05T03:02:03.152Z,8.23
2024-03-05T03:03:03.139Z,8.10
2024-03-05T03:04:03.109Z,8.18
2024-03-05T03:05:03.081Z,8.19
2024-03-05T03:06:03.040Z,8.15
2024-03-05T03:07:03.042Z,8.11
2024-03-05T03:08:03.080Z,8.25
2024-03-05T03:09:03.041Z,8.16
2024-03-05T03:10:03.030Z,8.20
2024-03-05T03:11:03.176Z,8.22
2024-03-05T03:12:02.990Z,8.19
2024-03-05T03:13:02.977Z,8.19
2024-03-05T03:14:02.980Z,8.22
2024-03-05T03:15:03.558Z,8.23
2024-03-05T03:16:02.949Z,8.25
2024-03-05T03:17:03.004Z,8.33
2024-03-05T03:18:02.963Z,8.26
2024-03-05T03:19:02.904Z,8.26
2024-03-05T03:20:02.945Z,8.29
2024-03-05T03:21:02.920Z,8.29
2024-03-05T03:22:02.863Z,8.30
2024-03-05T03:23:02.906Z,8.30
2024-03-05T03:24:02.875Z,8.26
2024-03-05T03:25:02.839Z,8.29
2024-03-05T03:26:02.863Z,8.26
2024-03-05T03:27:02.838Z,8.29
2024-03-05T03:28:02.810Z,8.26
2024-03-05T03:29:02.893Z,8.08
2024-03-05T03:30:02.777Z,8.19
2024-03-05T03:31:02.777Z,8.22
2024-03-05T03:32:02.795Z,8.18
2024-03-05T03:33:02.800Z,8.05
2024-03-05T03:34:02.738Z,8.08
2024-03-05T03:35:02.829Z,8.02
2024-03-05T03:36:02.714Z,8.10
2024-03-05T03:37:02.710Z,8.10
2024-03-05T03:38:02.702Z,8.00
2024-03-05T03:39:02.707Z,7.97
2024-03-05T03:40:02.704Z,7.97
2024-03-05T03:41:02.745Z,8.05
2024-03-05T03:42:02.664Z,8.02
2024-03-05T03:43:02.657Z,8.01
2024-03-05T03:44:02.665Z,8.05
2024-03-05T03:45:02.676Z,8.07
2024-03-05T03:46:02.658Z,8.12
2024-03-05T03:47:02.656Z,8.04
2024-03-05T03:48:02.658Z,8.02
2024-03-05T03:49:02.588Z,8.04
2024-03-05T03:50:02.609Z,7.98
2024-03-05T03:51:02.614Z,8.16
2024-03-05T03:52:02.552Z,8.05
2024-03-05T03:53:02.598Z,8.11
2024-03-05T03:54:02.575Z,8.11
2024-03-05T03:55:02.522Z,8.11
2024-03-05T03:56:02.534Z,8.12
2024-03-05T03:57:02.510Z,8.12
2024-03-05T03:58:02.506Z,8.15
2024-03-05T03:59:02.532Z,8.19
2024-03-05T04:00:02.470Z,8.08
2024-03-05T04:01:02.481Z,8.20
2024-03-05T04:02:02.571Z,8.10
2024-03-05T04:03:02.481Z,8.11
2024-03-05T04:04:02.443Z,8.10
2024-03-05T04:05:02.470Z,8.02
2024-03-05T04:06:02.416Z,8.10
2024-03-05T04:07:02.406Z,8.08
2024-03-05T04:08:04.982Z,8.18
2024-03-05T04:09:02.391Z,8.16
2024-03-05T04:10:02.413Z,8.08
2024-03-05T04:11:02.432Z,8.02
2024-03-05T04:12:02.355Z,8.08
2024-03-05T04:13:02.341Z,8.18
2024-03-05T04:14:04.280Z,8.10
2024-03-05T04:15:02.366Z,8.00
2024-03-05T04:16:02.299Z,8.04
2024-03-05T04:17:02.315Z,8.00
2024-03-05T04:18:02.282Z,8.00
2024-03-05T04:19:02.263Z,8.02
2024-03-05T04:20:02.421Z,8.05
2024-03-05T04:21:02.298Z,8.02
2024-03-05T04:22:02.236Z,8.11
2024-03-05T04:23:02.332Z,8.15
2024-03-05T04:24:02.208Z,8.23
2024-03-05T04:25:02.197Z,8.25
2024-03-05T04:26:02.309Z,8.26
2024-03-05T04:27:02.221Z,8.29
2024-03-05T04:28:02.192Z,8.23
2024-03-05T04:29:02.319Z,8.30
2024-03-05T04:30:02.259Z,8.30
2024-03-05T04:31:02.143Z,8.25
2024-03-05T04:32:02.181Z,8.29
2024-03-05T04:33:02.202Z,8.36
2024-03-05T04:34:02.174Z,8.29
2024-03-05T04:35:02.332Z,8.30
2024-03-05T04:36:02.113Z,8.37
2024-03-05T04:37:02.068Z,8.37
2024-03-05T04:38:02.119Z,8.36
2024-03-05T04:39:02.065Z,8.33
2024-03-05T04:40:02.030Z,8.36
2024-03-05T04:41:02.038Z,8.40
2024-03-05T04:42:02.031Z,8.43
2024-03-05T04:43:02.019Z,8.47
2024-03-05T04:44:02.058Z,8.47
2024-03-05T04:45:02.012Z,8.43
2024-03-05T04:46:02.005Z,8.43
2024-03-05T04:47:02.019Z,8.43
2024-03-05T04:48:02.048Z,8.33
2024-03-05T04:49:01.947Z,8.38
2024-03-05T04:50:01.959Z,8.37
2024-03-05T04:51:01.977Z,8.50
2024-03-05T04:52:01.941Z,8.34
2024-03-05T04:53:02.008Z,8.40
2024-03-05T04:54:01.884Z,8.43
2024-03-05T04:55:01.879Z,8.48
2024-03-05T04:56:01.974Z,8.45
2024-03-05T04:57:01.916Z,8.47
2024-03-05T04:58:01.874Z,8.45
2024-03-05T04:59:01.870Z,8.43
2024-03-05T05:00:01.821Z,8.37
2024-03-05T05:01:01.855Z,8.41
2024-03-05T05:02:01.910Z,8.40
2024-03-05T05:03:01.807Z,8.40
2024-03-05T05:04:01.793Z,8.47
2024-03-05T05:05:01.831Z,8.50
2024-03-05T05:06:01.778Z,8.43
2024-03-05T05:07:01.743Z,8.36
2024-03-05T05:08:01.953Z,8.48
2024-03-05T05:09:01.754Z,8.40
2024-03-05T05:10:01.711Z,8.40
2024-03-05T05:11:01.838Z,8.40
2024-03-05T05:12:01.745Z,8.38
2024-03-05T05:13:01.702Z,8.38
2024-03-05T05:14:01.817Z,8.44
2024-03-05T05:15:01.693Z,8.43
2024-03-05T05:16:01.671Z,8.38
2024-03-05T05:17:01.720Z,8.40
2024-03-05T05:18:01.682Z,8.48
2024-03-05T05:19:01.620Z,8.44
2024-03-05T05:20:02.215Z,8.41
2024-03-05T05:21:01.648Z,8.43
2024-03-05T05:22:01.586Z,8.36
2024-03-05T05:23:01.594Z,8.41
2024-03-05T05:24:01.588Z,8.50
2024-03-05T05:25:01.566Z,8.48
2024-03-05T05:26:01.610Z,8.50
2024-03-05T05:27:01.590Z,8.37
2024-03-05T05:28:01.526Z,8.30
2024-03-05T05:29:01.543Z,8.44
2024-03-05T05:30:08.792Z,8.44
2024-03-05T05:31:02.486Z,8.44
2024-03-05T05:32:01.594Z,8.43
2024-03-05T05:33:01.547Z,8.41
2024-03-05T05:34:01.458Z,8.47
2024-03-05T05:35:01.508Z,8.43
2024-03-05T05:36:01.469Z,8.33
2024-03-05T05:37:01.424Z,8.33
2024-03-05T05:38:01.447Z,8.30
2024-03-05T05:39:01.428Z,8.30
2024-03-05T05:40:01.429Z,8.34
2024-03-05T05:41:01.392Z,8.30
2024-03-05T05:42:01.388Z,8.34
2024-03-05T05:43:01.352Z,8.30
2024-03-05T05:44:01.395Z,8.33
2024-03-05T05:45:01.380Z,8.40
2024-03-05T05:46:01.338Z,8.33
2024-03-05T05:47:01.389Z,8.26
2024-03-05T05:48:01.459Z,8.36
2024-03-05T05:49:01.290Z,8.38
2024-03-05T05:50:01.406Z,8.33
2024-03-05T05:51:01.303Z,8.30
2024-03-05T05:52:01.278Z,8.36
2024-03-05T05:53:01.626Z,8.34
2024-03-05T05:54:01.255Z,8.33
2024-03-05T05:55:01.223Z,8.34
2024-03-05T05:56:01.294Z,8.33
2024-03-05T05:57:01.236Z,8.33
2024-03-05T05:58:01.199Z,8.33
2024-03-05T05:59:01.310Z,8.33
2024-03-05T06:00:01.191Z,8.37
2024-03-05T06:01:01.155Z,8.36
2024-03-05T06:02:01.253Z,8.50
2024-03-05T06:03:01.150Z,8.34
2024-03-05T06:04:01.176Z,8.36
2024-03-05T06:05:01.250Z,8.40
2024-03-05T06:06:01.156Z,8.25
2024-03-05T06:07:05.955Z,8.44
2024-03-05T06:08:02.321Z,8.34
2024-03-05T06:09:01.107Z,8.41
2024-03-05T06:10:01.069Z,8.45
2024-03-05T06:11:01.178Z,8.47
2024-03-05T06:12:01.085Z,8.41
2024-03-05T06:13:01.028Z,8.45
2024-03-05T06:14:01.086Z,8.38
2024-03-05T06:15:01.024Z,8.45
2024-03-05T06:16:00.998Z,8.45
2024-03-05T06:17:01.071Z,8.41
2024-03-05T06:18:01.352Z,8.53
2024-03-05T06:19:00.999Z,8.38
2024-03-05T06:20:01.017Z,8.48
2024-03-05T06:21:00.960Z,8.40
2024-03-05T06:22:00.950Z,8.37
2024-03-05T06:23:00.974Z,8.36
2024-03-05T06:24:00.940Z,8.37
2024-03-05T06:25:00.928Z,8.44
2024-03-05T06:26:01.154Z,8.45
2024-03-05T06:27:00.881Z,8.37
2024-03-05T06:28:00.942Z,8.34
2024-03-05T06:29:00.931Z,8.36
2024-03-05T06:30:00.852Z,8.50
2024-03-05T06:31:00.861Z,8.44
2024-03-05T06:32:00.873Z,8.36
2024-03-05T06:33:00.857Z,8.38
2024-03-05T06:34:00.810Z,8.47
2024-03-05T06:35:00.849Z,8.34
2024-03-05T06:36:00.790Z,8.43
2024-03-05T06:37:00.782Z,8.44
2024-03-05T06:38:00.852Z,8.43
2024-03-05T06:39:00.760Z,8.44
2024-03-05T06:40:00.736Z,8.52
2024-03-05T06:41:00.786Z,8.44
2024-03-05T06:42:00.734Z,8.50
2024-03-05T06:43:00.754Z,8.44
2024-03-05T06:44:00.842Z,8.50
2024-03-05T06:45:00.716Z,8.45
2024-03-05T06:46:00.680Z,8.48
2024-03-05T06:47:00.780Z,8.50
2024-03-05T06:48:11.343Z,8.48
2024-03-05T06:49:02.152Z,8.48
2024-03-05T06:50:00.721Z,8.40
2024-03-05T06:51:00.625Z,8.45
2024-03-05T06:52:00.625Z,8.47
2024-03-05T06:53:00.642Z,8.44
2024-03-05T06:54:00.593Z,8.52
2024-03-05T06:55:00.610Z,8.55
2024-03-05T06:56:00.626Z,8.44
2024-03-05T06:57:00.564Z,8.48
2024-03-05T06:58:00.557Z,8.55
2024-03-05T06:59:00.759Z,8.50
2024-03-05T07:00:00.564Z,8.47
2024-03-05T07:01:01.513Z,8.58
2024-03-05T07:02:00.599Z,8.52
2024-03-05T07:03:00.542Z,8.50
2024-03-05T07:04:00.482Z,8.58
2024-03-05T07:05:00.560Z,8.53
2024-03-05T07:06:00.469Z,8.48
2024-03-05T07:07:00.500Z,8.56
2024-03-05T07:08:00.586Z,8.61
2024-03-05T07:09:00.491Z,8.61
2024-03-05T07:10:00.425Z,8.56
2024-03-05T07:11:00.466Z,8.55
2024-03-05T07:12:00.402Z,8.53
2024-03-05T07:13:00.448Z,8.55
2024-03-05T07:14:00.406Z,8.48
2024-03-05T07:15:00.379Z,8.53
2024-03-05T07:16:00.382Z,8.50
2024-03-05T07:17:00.410Z,8.58
2024-03-05T07:18:00.375Z,8.52
2024-03-05T07:19:00.346Z,8.55
2024-03-05T07:20:00.399Z,8.53
2024-03-05T07:21:00.299Z,8.55
2024-03-05T07:22:00.296Z,8.40
2024-03-05T07:23:00.391Z,8.47
2024-03-05T07:24:00.585Z,8.48
2024-03-05T07:25:00.293Z,8.45
2024-03-05T07:26:02.449Z,8.45
2024-03-05T07:27:04.878Z,8.52
2024-03-05T07:28:01.255Z,8.45
2024-03-05T07:29:00.279Z,8.55
2024-03-05T07:30:00.302Z,8.45
2024-03-05T07:31:00.216Z,8.53
2024-03-05T07:32:00.384Z,8.45
2024-03-05T07:33:00.215Z,8.50
2024-03-05T07:34:00.178Z,8.61
2024-03-05T07:35:00.251Z,8.53
2024-03-05T07:36:00.158Z,8.55
2024-03-05T07:37:00.159Z,8.58
2024-03-05T07:38:00.160Z,8.59
2024-03-05T07:39:00.117Z,8.50
2024-03-05T07:40:00.210Z,8.55
2024-03-05T07:41:00.116Z,8.52
2024-03-05T07:42:00.105Z,8.52
2024-03-05T07:43:00.098Z,8.55
2024-03-05T07:44:00.131Z,8.55
2024-03-05T07:45:00.041Z,8.53
2024-03-05T07:46:00.042Z,8.47
2024-03-05T07:47:00.118Z,8.47
2024-03-05T07:48:00.037Z,8.45
2024-03-05T07:49:00.016Z,8.48
2024-03-05T07:50:00.011Z,8.48
2024-03-05T07:51:00.013Z,8.43
2024-03-05T07:52:00.006Z,8.48
2024-03-05T07:53:00.014Z,8.38
2024-03-05T07:53:59.976Z,8.36
2024-03-05T07:54:59.934Z,8.36
2024-03-05T07:55:59.960Z,8.38
2024-03-05T07:56:59.932Z,8.43
2024-03-05T07:57:59.954Z,8.44
2024-03-05T07:58:59.961Z,8.33
2024-03-05T07:59:59.880Z,8.33
2024-03-05T08:00:59.926Z,8.34
2024-03-05T08:01:59.911Z,8.48
2024-03-05T08:02:59.900Z,8.41
2024-03-05T08:04:00.106Z,8.41
2024-03-05T08:04:59.923Z,8.38
2024-03-05T08:05:59.817Z,8.41
2024-03-05T08:06:59.880Z,8.47
2024-03-05T08:07:59.895Z,8.38
2024-03-05T08:08:59.821Z,8.53
2024-03-05T08:09:59.777Z,8.41
2024-03-05T08:10:59.907Z,8.45
2024-03-05T08:11:59.856Z,8.43
2024-03-05T08:12:59.745Z,8.43
2024-03-05T08:13:59.880Z,8.43
2024-03-05T08:14:59.720Z,8.50
2024-03-05T08:15:59.716Z,8.45
2024-03-05T08:16:59.753Z,8.52
2024-03-05T08:17:59.758Z,8.55
2024-03-05T08:18:59.683Z,8.48
2024-03-05T08:19:59.740Z,8.50
2024-03-05T08:20:59.657Z,8.58
2024-03-05T08:21:59.643Z,8.61
2024-03-05T08:22:59.732Z,8.58
2024-03-05T08:23:59.623Z,8.53
2024-03-05T08:24:59.632Z,8.48
2024-03-05T08:25:59.717Z,8.50
2024-03-05T08:26:59.613Z,8.53
2024-03-05T08:27:59.843Z,8.52
2024-03-05T08:28:59.705Z,8.43
2024-03-05T08:29:59.554Z,8.45
2024-03-05T08:30:59.554Z,8.50
2024-03-05T08:31:59.605Z,8.44
2024-03-05T08:32:59.604Z,8.47
2024-03-05T08:33:59.531Z,8.44
2024-03-05T08:34:59.551Z,8.44
2024-03-05T08:35:59.514Z,8.47
2024-03-05T08:36:59.501Z,8.44
2024-03-05T08:37:59.593Z,8.44
2024-03-05T08:38:59.477Z,8.44
2024-03-05T08:39:59.452Z,8.43
2024-03-05T08:40:59.535Z,8.43
2024-03-05T08:41:59.455Z,8.45
2024-03-05T08:42:59.423Z,8.50
2024-03-05T08:43:59.494Z,8.38
2024-03-05T08:44:59.414Z,8.55
2024-03-05T08:45:59.383Z,8.58
2024-03-05T08:46:59.526Z,8.59
2024-03-05T08:47:59.516Z,8.61
2024-03-05T08:48:59.355Z,8.59
2024-03-05T08:49:59.417Z,8.62
2024-03-05T08:50:59.335Z,8.55
2024-03-05T08:51:59.436Z,8.55
2024-03-05T08:52:59.995Z,8.50
2024-03-05T08:53:59.313Z,8.58
2024-03-05T08:54:59.290Z,8.53
2024-03-05T08:55:59.362Z,8.53
2024-03-05T08:56:59.324Z,8.58
2024-03-05T08:57:59.253Z,8.52
2024-03-05T08:58:59.331Z,8.58
2024-03-05T08:59:59.236Z,8.58
2024-03-05T09:00:59.244Z,8.53
2024-03-05T09:01:59.239Z,8.55
2024-03-05T09:02:59.223Z,8.55
2024-03-05T09:03:59.185Z,8.59
2024-03-05T09:04:59.464Z,8.55
2024-03-05T09:05:59.169Z,8.58
2024-03-05T09:06:59.182Z,8.56
2024-03-05T09:07:59.250Z,8.55
2024-03-05T09:08:59.153Z,8.61
2024-03-05T09:09:59.129Z,8.61
2024-03-05T09:10:59.388Z,8.63
2024-03-05T09:11:59.196Z,8.52
2024-03-05T09:12:59.120Z,8.61
2024-03-05T09:13:59.128Z,8.61
2024-03-05T09:14:59.075Z,8.52
2024-03-05T09:15:59.080Z,8.61
2024-03-05T09:16:59.138Z,8.58
2024-03-05T09:17:59.270Z,8.55
2024-03-05T09:18:59.069Z,8.53
2024-03-05T09:19:59.072Z,8.70
2024-03-05T09:20:59.009Z,8.55
2024-03-05T09:21:59.017Z,8.55
2024-03-05T09:22:59.096Z,8.65
2024-03-05T09:23:58.993Z,8.70
2024-03-05T09:24:58.998Z,8.61
2024-03-05T09:25:59.054Z,8.68
2024-03-05T09:26:58.959Z,8.73
2024-03-05T09:27:58.919Z,8.71
2024-03-05T09:28:58.979Z,8.71
2024-03-05T09:29:58.931Z,8.79
2024-03-05T09:30:58.895Z,8.76
2024-03-05T09:31:59.040Z,8.73
2024-03-05T09:32:58.906Z,8.76
2024-03-05T09:33:58.871Z,8.77
2024-03-05T09:34:58.951Z,8.89
2024-03-05T09:35:58.842Z,8.84
2024-03-05T09:36:58.866Z,8.81
2024-03-05T09:37:59.027Z,8.79
2024-03-05T09:38:58.810Z,8.83
2024-03-05T09:39:58.817Z,8.79
2024-03-05T09:40:58.874Z,8.83
2024-03-05T09:41:58.792Z,8.77
2024-03-05T09:42:58.839Z,8.81
2024-03-05T09:43:58.851Z,8.81
2024-03-05T09:44:58.749Z,8.84
2024-03-05T09:45:58.729Z,8.89
2024-03-05T09:46:58.827Z,8.92
2024-03-05T09:47:58.717Z,8.94
2024-03-05T09:49:07.296Z,8.89
2024-03-05T09:49:59.757Z,8.95
2024-03-05T09:50:58.685Z,8.98
2024-03-05T09:51:59.475Z,9.01
2024-03-05T09:52:58.686Z,9.04
2024-03-05T09:53:58.673Z,8.95
2024-03-05T09:54:58.640Z,9.05
2024-03-05T09:55:58.689Z,9.10
2024-03-05T09:56:58.662Z,9.17
2024-03-05T09:57:58.634Z,9.14
2024-03-05T09:58:58.625Z,9.26
2024-03-05T09:59:58.601Z,9.26
2024-03-05T10:00:58.580Z,9.17
2024-03-05T10:01:58.653Z,9.31
2024-03-05T10:02:58.557Z,9.32
2024-03-05T10:03:58.556Z,9.31
2024-03-05T10:04:58.587Z,9.28
2024-03-05T10:05:58.566Z,9.32
2024-03-05T10:06:58.545Z,9.26
2024-03-05T10:07:58.643Z,9.24
2024-03-05T10:08:58.481Z,9.31
2024-03-05T10:09:58.464Z,9.40
2024-03-05T10:10:58.565Z,9.38
2024-03-05T10:11:58.597Z,9.28
2024-03-05T10:12:58.461Z,9.31
2024-03-05T10:13:58.481Z,9.31
2024-03-05T10:14:58.424Z,9.31
2024-03-05T10:15:58.419Z,9.32
2024-03-05T10:16:58.509Z,9.28
2024-03-05T10:17:58.472Z,9.24
2024-03-05T10:18:58.380Z,9.17
2024-03-05T10:19:58.475Z,9.11
2024-03-05T10:20:58.363Z,9.10
2024-03-05T10:21:58.353Z,9.15
2024-03-05T10:22:58.531Z,9.13
2024-03-05T10:23:58.408Z,9.14
2024-03-05T10:24:58.354Z,9.11
2024-03-05T10:25:58.314Z,9.08
2024-03-05T10:26:58.312Z,9.10
2024-03-05T10:27:58.307Z,9.10
2024-03-05T10:28:58.311Z,9.08
2024-03-05T10:29:58.272Z,9.10
2024-03-05T10:30:58.246Z,9.11
2024-03-05T10:31:58.244Z,9.15
2024-03-05T10:32:58.442Z,9.13
2024-03-05T10:33:58.210Z,9.10
2024-03-05T10:34:58.301Z,9.24
2024-03-05T10:35:58.195Z,9.18
2024-03-05T10:36:58.199Z,9.18
2024-03-05T10:37:58.310Z,9.32
2024-03-05T10:38:58.185Z,9.29
2024-03-05T10:39:58.145Z,9.21
2024-03-05T10:40:58.205Z,9.28
2024-03-05T10:41:58.138Z,9.31
2024-03-05T10:42:58.124Z,9.29
2024-03-05T10:43:58.242Z,9.28
2024-03-05T10:44:58.095Z,9.29
2024-03-05T10:45:58.086Z,9.28
2024-03-05T10:46:58.267Z,9.36
2024-03-05T10:47:58.128Z,9.31
2024-03-05T10:48:58.076Z,9.35
2024-03-05T10:49:58.105Z,9.36
2024-03-05T10:50:58.030Z,9.24
2024-03-05T10:51:58.026Z,9.31
2024-03-05T10:52:58.339Z,9.24
2024-03-05T10:53:58.010Z,9.24
2024-03-05T10:54:58.046Z,9.29
2024-03-05T10:55:58.008Z,9.29
2024-03-05T10:56:57.996Z,9.33
2024-03-05T10:57:58.026Z,9.32
2024-03-05T10:58:57.996Z,9.42
2024-03-05T10:59:57.993Z,9.43
2024-03-05T11:00:58.011Z,9.38
2024-03-05T11:01:57.979Z,9.54
2024-03-05T11:02:57.903Z,9.48
2024-03-05T11:03:57.917Z,9.43
2024-03-05T11:04:57.928Z,9.31
2024-03-05T11:05:57.932Z,9.33
2024-03-05T11:06:57.866Z,9.29
2024-03-05T11:07:57.899Z,9.38
2024-03-05T11:08:57.842Z,9.40
2024-03-05T11:09:57.827Z,9.39
2024-03-05T11:10:57.886Z,9.32
2024-03-05T11:11:57.857Z,9.35
2024-03-05T11:12:57.793Z,9.36
2024-03-05T11:13:57.820Z,9.42
2024-03-05T11:14:57.789Z,9.38
2024-03-05T11:15:57.795Z,9.33
2024-03-05T11:16:57.867Z,9.36
2024-03-05T11:17:57.834Z,9.40
2024-03-05T11:18:57.736Z,9.51
2024-03-05T11:19:57.775Z,9.50
2024-03-05T11:20:57.712Z,9.43
2024-03-05T11:21:57.723Z,9.48
2024-03-05T11:22:57.707Z,9.58
2024-03-05T11:23:57.704Z,9.58
2024-03-05T11:24:57.718Z,9.71
2024-03-05T11:25:57.758Z,9.75
2024-03-05T11:26:57.658Z,9.76
2024-03-05T11:27:57.656Z,9.69
2024-03-05T11:28:57.733Z,9.69
2024-03-05T11:29:57.656Z,9.78
2024-03-05T11:30:57.610Z,9.72
2024-03-05T11:31:57.637Z,9.69
2024-03-05T11:32:57.619Z,9.78
2024-03-05T11:33:57.583Z,9.71
2024-03-05T11:34:57.655Z,9.74
2024-03-05T11:35:57.586Z,9.76
2024-03-05T11:36:57.558Z,9.71
2024-03-05T11:37:57.637Z,9.71
2024-03-05T11:38:57.520Z,9.76
2024-03-05T11:39:57.511Z,9.74
2024-03-05T11:40:57.550Z,9.74
2024-03-05T11:41:57.491Z,9.66
2024-03-05T11:42:57.513Z,9.69
2024-03-05T11:43:57.527Z,9.56
2024-03-05T11:44:57.457Z,9.54
2024-03-05T11:45:57.455Z,9.48
2024-03-05T11:46:58.051Z,9.56
2024-03-05T11:47:57.465Z,9.47
2024-03-05T11:48:57.422Z,9.46
2024-03-05T11:49:57.398Z,9.51
2024-03-05T11:50:57.389Z,9.53
2024-03-05T11:51:57.379Z,9.61
2024-03-05T11:52:57.382Z,9.48
2024-03-05T11:53:57.398Z,9.50
2024-03-05T11:54:57.345Z,9.54
2024-03-05T11:55:57.395Z,9.46
2024-03-05T11:56:57.320Z,9.60
2024-03-05T11:57:57.320Z,9.56
2024-03-05T11:58:57.361Z,9.58
2024-03-05T11:59:57.325Z,9.75
2024-03-05T12:00:57.275Z,9.72
2024-03-05T12:01:57.322Z,9.76
2024-03-05T12:02:57.276Z,9.68
2024-03-05T12:03:57.296Z,9.72
2024-03-05T12:04:57.313Z,9.72
2024-03-05T12:05:57.240Z,9.79
2024-03-05T12:06:57.225Z,9.83
2024-03-05T12:07:57.219Z,9.86
2024-03-05T12:08:57.193Z,9.79
2024-03-05T12:09:57.206Z,9.86
2024-03-05T12:10:57.314Z,9.78
2024-03-05T12:11:57.209Z,9.79
2024-03-05T12:12:57.152Z,9.78
2024-03-05T12:13:57.180Z,9.86
2024-03-05T12:14:57.125Z,9.79
2024-03-05T12:15:57.147Z,9.89
2024-03-05T12:16:57.185Z,9.89
2024-03-05T12:17:57.157Z,9.81
2024-03-05T12:18:57.082Z,9.83
2024-03-05T12:19:57.121Z,9.86
2024-03-05T12:20:57.082Z,9.91
2024-03-05T12:21:57.059Z,9.86
2024-03-05T12:22:57.054Z,9.86
2024-03-05T12:23:57.088Z,9.86
2024-03-05T12:24:57.152Z,9.89
2024-03-05T12:25:57.072Z,9.79
2024-03-05T12:26:56.996Z,9.89
2024-03-05T12:27:57.007Z,9.84
2024-03-05T12:28:57.043Z,9.86
2024-03-05T12:29:57.081Z,9.83
2024-03-05T12:30:56.953Z,9.89
2024-03-05T12:31:57.043Z,9.83
2024-03-05T12:32:57.010Z,9.89
2024-03-05T12:33:56.946Z,9.89
2024-03-05T12:34:56.950Z,9.87
2024-03-05T12:35:56.949Z,9.83
2024-03-05T12:36:56.889Z,9.91
2024-03-05T12:37:57.436Z,9.79
2024-03-05T12:38:56.893Z,9.68
2024-03-05T12:39:56.891Z,9.72
2024-03-05T12:40:56.910Z,9.72
2024-03-05T12:41:56.845Z,9.68
2024-03-05T12:42:56.829Z,9.68
2024-03-05T12:43:57.163Z,9.75
2024-03-05T12:44:56.817Z,9.76
2024-03-05T12:45:56.836Z,9.61
2024-03-05T12:46:56.848Z,9.71
2024-03-05T12:47:56.853Z,9.58
2024-03-05T12:48:56.771Z,9.61
2024-03-05T12:49:56.818Z,9.71
2024-03-05T12:50:56.742Z,9.57
2024-03-05T12:51:56.763Z,9.57
2024-03-05T12:52:56.780Z,9.50
2024-03-05T12:53:58.607Z,9.47
2024-03-05T12:54:57.696Z,9.47
2024-03-05T12:55:56.734Z,9.54
2024-03-05T12:56:56.685Z,9.60
2024-03-05T12:57:56.669Z,9.68
2024-03-05T12:58:56.743Z,9.76
2024-03-05T12:59:56.648Z,9.74
2024-03-05T13:00:56.737Z,9.78
2024-03-05T13:01:56.746Z,9.84
2024-03-05T13:02:56.619Z,9.79
2024-03-05T13:03:56.600Z,9.75
2024-03-05T13:04:58.964Z,9.86
2024-03-05T13:05:56.602Z,9.83
2024-03-05T13:06:56.580Z,9.86
2024-03-05T13:07:56.620Z,9.79
2024-03-05T13:08:56.563Z,9.87
2024-03-05T13:09:56.545Z,9.76
2024-03-05T13:10:56.637Z,9.84
2024-03-05T13:11:56.684Z,9.89
2024-03-05T13:12:56.502Z,9.99
2024-03-05T13:13:56.517Z,9.86
2024-03-05T13:14:56.495Z,9.93
2024-03-05T13:15:56.468Z,9.96
2024-03-05T13:16:56.505Z,10.02
2024-03-05T13:17:56.513Z,9.99